Terminal Aerodrome Forecast
Issued by NWS La Crosse, WI

Home | Current Version | Previous Version | Text Only | Print | Product List | Glossary On
Versions: 1 2 3 4 5 6 7 8 9 10 11 12 13 14 15 16 17 18 19 20
000
FTUS43 KARX 042142 AAC
TAFRST
TAF AMD
KRST 042142Z 0422/0518 24011KT P6SM BKN015
     FM050300 24009KT P6SM SCT025
     FM050900 21008KT P6SM BKN060
     FM051200 18012KT P6SM BKN080=

USA.gov is the U.S. government's official web portal to all federal, state and local government web resources and services.